Welcome, Guest. Please login or register.
Did you miss your activation email?

Username: Password:
Outdoor Wood Furnace Info - Statistics Center
General Statistics
Total Members: 8216
Total Posts: 76916
Total Topics: 7229
Total Categories: 6
Users Online: 10
Most Online: 165 - May 22, 2013, 12:42:02 PM
Online Today: 40
Average registrations per day: 7.65
Average posts per day: 21.77
Average topics per day: 2.52
Total Boards: 50
Latest Member: Hunt4heat
Average online per day: 24.97
Male to Female Ratio: 89.8:1
Top 10 Posters Top 10 Boards
mlappin 3903
Scott7m 3740
RSI 2899
willieG 1852
Roger2561 1632
hondaracer2oo4 1423
coolidge 1403
atvalaska 1278
MattyNH 1275
caper 1181
General Outdoor Furnace Discussion 30423
Plumbing 7491
Central Boiler 4677
General Discussion 4391
HeatMaster 3956
Portage & Main 3689
Fire Wood 3257
Home Made 2485
Equipment 2272
Electronics 2184
Top 10 Topics (by Replies) Top 10 Topics (by Views)
new heatmor and having huge issues 491
our wood stoves are horrible but epa thinks this is fine 344
Gasification wood boiler build 303
Almost 172
Wood Consumption vs. Application 144
TYPE of CHAIN SAWS USED 138
ProFab has some issues! 130
Ridgewood stoves 124
Global warming, climate change? Article 124
I'm impressed 123
Synergy Boilers? 580804
HELP! I hate my SHAVER! 468301
TAKE A STAND AGAINST MIDWEST (SYNERGY) BOILERS 448500
Synergy Boilers 98684
Gasification wood boiler build 61797
new heatmor and having huge issues 36832
Truth about Wood Doctor by president 31887
Suggested Water Temperature on Boiler 28635
My homemade/modified forced air wood furnace 28591
Used Hardy Stove info 24814
Top Topic Starters Most Time Online
coolidge 334
Roger2561 223
mlappin 109
slimjim 107
Scott7m 102
d5knapp 93
userdk 71
AirForcePOL 66
hondaracer2oo4 60
heat550 56
slimjim 90d 9h 50m
willieG 89d 16h 0m
RSI 47d 13h 9m
mlappin 37d 13h 7m
Scott7m 35d 21h 14m
koutsman 29d 18h 10m
MD20/20 26d 15h 13m
sceptre74 25d 4h 46m
CountryBoyJohn 21d 7h 36m
Roger2561 20d 20h 42m
Forum History (using forum time offset)
Yearly Summary New Topics New Posts New Members Most Online
* 2018 258 2812 5818 91
* 2017 597 7391 3268 65
December 2017 70 940 259 42
November 2017 77 940 272 40
October 2017 66 673 305 48
September 2017 40 581 253 42
August 2017 50 619 275 31
July 2017 16 164 329 33
June 2017 28 227 264 54
May 2017 30 407 291 45
2017-05-01 2 15 8 20
2017-05-02 1 9 5 26
2017-05-03 0 15 8 28
2017-05-04 2 15 9 20
2017-05-05 2 23 13 45
2017-05-06 0 17 3 26
2017-05-07 0 11 8 40
2017-05-08 2 25 8 25
2017-05-09 1 14 9 21
2017-05-10 0 10 8 32
2017-05-11 0 7 5 40
2017-05-12 1 15 7 33
2017-05-13 0 20 9 29
2017-05-14 1 8 5 34
2017-05-15 0 13 18 28
2017-05-16 0 8 10 22
2017-05-17 3 10 9 23
2017-05-18 2 21 12 30
2017-05-19 1 18 16 20
2017-05-20 1 9 10 24
2017-05-21 1 11 12 27
2017-05-22 0 23 17 25
2017-05-23 2 13 12 21
2017-05-24 2 6 10 23
2017-05-25 1 21 5 22
2017-05-26 0 10 6 21
2017-05-27 1 8 12 20
2017-05-28 0 9 7 24
2017-05-29 0 10 6 19
2017-05-30 1 7 11 28
2017-05-31 3 6 13 19
April 2017 40 748 290 60
March 2017 46 601 306 49
February 2017 43 569 241 65
January 2017 91 922 183 53
* 2016 546 5025 3090 75
December 2016 75 786 262 49
November 2016 55 512 251 75
October 2016 50 389 217 39
September 2016 43 244 237 27
2016-09-01 3 15 11 18
2016-09-02 0 4 10 19
2016-09-03 0 0 5 26
2016-09-04 1 2 4 17
2016-09-05 1 16 5 23
2016-09-06 1 5 2 18
2016-09-07 1 9 5 18
2016-09-08 3 14 3 20
2016-09-09 1 18 2 21
2016-09-10 0 7 4 19
2016-09-11 0 8 7 17
2016-09-12 1 6 2 22
2016-09-13 1 1 4 18
2016-09-14 2 5 4 22
2016-09-15 1 7 4 24
2016-09-16 1 7 6 17
2016-09-17 2 8 4 20
2016-09-18 0 4 12 18
2016-09-19 1 7 11 21
2016-09-20 2 13 7 20
2016-09-21 1 3 12 19
2016-09-22 2 7 13 20
2016-09-23 1 6 17 21
2016-09-24 2 13 15 26
2016-09-25 7 27 9 24
2016-09-26 2 6 12 27
2016-09-27 1 8 10 23
2016-09-28 2 6 12 23
2016-09-29 1 3 19 26
2016-09-30 2 9 6 24
August 2016 20 105 129 44
July 2016 14 75 126 53
June 2016 11 86 151 49
May 2016 22 164 179 39
April 2016 22 222 548 51
March 2016 43 454 576 68
February 2016 74 806 123 58
January 2016 117 1182 291 52
* 2015 1317 11279 9513 67
December 2015 106 910 2179 40
November 2015 236 968 2620 60
October 2015 169 843 906 46
September 2015 42 202 593 35
August 2015 49 274 447 41
July 2015 35 353 449 53
June 2015 32 269 266 42
May 2015 66 519 364 46
April 2015 92 795 418 39
March 2015 113 1670 400 46
February 2015 175 2072 445 56
January 2015 202 2404 426 67
2015-01-01 10 82 8 62
2015-01-02 5 89 8 51
2015-01-03 11 111 5 42
2015-01-04 7 49 7 48
2015-01-05 9 124 12 49
2015-01-06 11 127 12 49
2015-01-07 12 118 10 56
2015-01-08 10 123 8 47
2015-01-09 9 63 10 43
2015-01-10 7 65 14 45
2015-01-11 3 63 11 45
2015-01-12 11 96 13 44
2015-01-13 5 86 17 45
2015-01-14 2 74 16 46
2015-01-15 6 53 16 46
2015-01-16 10 115 14 60
2015-01-17 5 32 12 40
2015-01-18 8 62 14 41
2015-01-19 5 65 17 43
2015-01-20 4 53 21 42
2015-01-21 0 48 19 37
2015-01-22 6 90 17 45
2015-01-23 4 62 31 49
2015-01-24 3 41 17 48
2015-01-25 6 64 19 46
2015-01-26 6 66 13 47
2015-01-27 10 88 18 47
2015-01-28 3 85 10 49
2015-01-29 6 92 12 49
2015-01-30 5 70 11 67
2015-01-31 3 48 14 41
* 2014 2461 21938 4588 110
* 2013 1171 11341 1091 165
December 2013 205 1813 294 78
2013-12-01 6 97 4 63
2013-12-02 6 57 6 46
2013-12-03 12 58 3 48
2013-12-04 5 65 2 67
2013-12-05 2 30 6 59
2013-12-06 3 35 3 36
2013-12-07 6 48 9 54
2013-12-08 10 85 14 65
2013-12-09 5 92 14 75
2013-12-10 10 66 15 62
2013-12-11 7 48 14 51
2013-12-12 12 108 7 61
2013-12-13 3 66 16 71
2013-12-14 2 43 13 61
2013-12-15 2 39 15 67
2013-12-16 11 76 11 67
2013-12-17 6 51 10 75
2013-12-18 5 45 5 56
2013-12-19 6 51 9 38
2013-12-20 6 73 14 46
2013-12-21 1 18 7 58
2013-12-22 3 41 8 48
2013-12-23 11 76 9 78
2013-12-24 5 64 10 62
2013-12-25 2 44 8 54
2013-12-26 5 24 12 58
2013-12-27 4 34 14 78
2013-12-28 14 44 12 53
2013-12-29 7 82 6 72
2013-12-30 15 82 12 46
2013-12-31 13 71 6 67
November 2013 192 1828 102 74
October 2013 141 1460 116 55
September 2013 98 808 75 40
August 2013 38 293 35 45
July 2013 46 253 28 37
June 2013 26 213 86 31
May 2013 51 348 42 165
April 2013 57 539 51 88
March 2013 69 744 58 64
February 2013 110 1403 91 51
January 2013 138 1639 113 49
* 2012 1863 11381 918 70
December 2012 111 1080 102 49
2012-12-01 3 21 2 34
2012-12-02 2 22 2 26
2012-12-03 6 39 5 33
2012-12-04 2 36 0 29
2012-12-05 1 39 3 26
2012-12-06 2 23 1 29
2012-12-07 2 21 1 23
2012-12-08 6 29 0 34
2012-12-09 5 43 9 29
2012-12-10 4 41 4 25
2012-12-11 6 64 5 25
2012-12-12 4 60 1 26
2012-12-13 2 37 1 25
2012-12-14 5 45 6 29
2012-12-15 4 42 5 27
2012-12-16 3 35 5 25
2012-12-17 6 58 4 28
2012-12-18 1 38 3 30
2012-12-19 2 24 2 26
2012-12-20 4 30 2 44
2012-12-21 7 45 2 23
2012-12-22 0 18 4 23
2012-12-23 4 31 3 30
2012-12-24 2 24 4 20
2012-12-25 2 18 1 25
2012-12-26 5 30 3 26
2012-12-27 5 30 4 29
2012-12-28 3 29 4 36
2012-12-29 3 27 5 49
2012-12-30 7 43 9 30
2012-12-31 3 38 2 38
November 2012 921 2147 195 53
October 2012 121 978 101 53
September 2012 78 716 61 34
August 2012 61 404 41 29
July 2012 28 203 25 31
June 2012 19 136 16 19
May 2012 27 234 33 44
April 2012 43 355 51 35
2012-04-01 1 4 5 18
2012-04-02 2 17 2 18
2012-04-03 4 24 3 19
2012-04-04 1 9 1 13
2012-04-05 3 11 0 14
2012-04-06 1 5 1 15
2012-04-07 1 1 2 18
2012-04-08 4 16 1 17
2012-04-09 2 24 6 18
2012-04-10 2 11 1 18
2012-04-11 0 19 0 18
2012-04-12 3 24 1 18
2012-04-13 0 10 3 19
2012-04-14 0 9 2 17
2012-04-15 0 3 0 17
2012-04-16 1 5 1 16
2012-04-17 0 9 1 17
2012-04-18 1 7 2 35
2012-04-19 1 8 4 19
2012-04-20 1 7 3 18
2012-04-21 0 18 0 21
2012-04-22 0 4 2 20
2012-04-23 2 16 1 17
2012-04-24 2 12 1 21
2012-04-25 4 13 1 17
2012-04-26 0 14 1 17
2012-04-27 1 10 1 19
2012-04-28 2 11 4 19
2012-04-29 2 17 1 24
2012-04-30 2 17 0 14
March 2012 74 858 44 26
February 2012 146 1674 88 50
2012-02-01 3 62 6 28
2012-02-02 11 100 4 24
2012-02-03 8 89 0 23
2012-02-04 6 92 1 50
2012-02-05 6 63 2 26
2012-02-06 0 6 0 15
2012-02-07 3 43 2 40
2012-02-08 9 77 4 27
2012-02-09 8 71 3 28
2012-02-10 7 89 8 26
2012-02-11 7 70 4 24
2012-02-12 6 68 6 28
2012-02-13 5 64 1 27
2012-02-14 3 55 3 28
2012-02-15 5 60 4 24
2012-02-16 2 77 3 28
2012-02-17 5 45 1 23
2012-02-18 9 57 7 24
2012-02-19 1 43 1 22
2012-02-20 2 33 4 24
2012-02-21 4 40 2 25
2012-02-22 10 60 2 24
2012-02-23 1 29 2 20
2012-02-24 4 51 5 25
2012-02-25 4 38 2 24
2012-02-26 3 37 1 23
2012-02-27 4 30 3 20
2012-02-28 5 75 4 25
2012-02-29 5 50 3 25
January 2012 234 2596 161 70
* 2011 741 7884 698 76
* 2010 444 2717 284 98
December 2010 51 657 81 27
November 2010 39 339 52 25
October 2010 43 332 38 20
September 2010 34 254 23 14
August 2010 9 72 14 14
July 2010 10 60 8 16
June 2010 11 51 4 15
May 2010 8 42 9 12
April 2010 13 94 10 13
March 2010 157 266 11 14
February 2010 23 193 7 98
January 2010 46 357 27 18
2010-01-01 0 10 0 9
2010-01-02 2 8 1 8
2010-01-03 3 36 1 13
2010-01-04 1 15 2 10
2010-01-05 5 15 1 12
2010-01-06 1 10 2 10
2010-01-07 1 12 1 14
2010-01-08 3 28 0 9
2010-01-09 0 3 0 7
2010-01-10 4 19 1 8
2010-01-11 2 13 2 13
2010-01-12 0 17 1 11
2010-01-13 2 9 1 9
2010-01-14 2 26 0 14
2010-01-15 0 22 0 10
2010-01-16 0 1 2 8
2010-01-17 0 1 0 8
2010-01-18 1 4 0 10
2010-01-19 0 6 1 11
2010-01-20 3 13 3 11
2010-01-21 0 6 0 8
2010-01-22 1 3 0 18
2010-01-23 2 10 1 11
2010-01-24 0 4 1 11
2010-01-25 3 12 0 10
2010-01-26 2 6 1 14
2010-01-27 2 10 1 13
2010-01-28 1 7 1 9
2010-01-29 1 3 0 12
2010-01-30 2 15 2 10
2010-01-31 2 13 1 15
* 2009 217 1823 163 20
* 2008 119 553 148 28
December 2008 17 89 7 10
November 2008 15 97 48 10
2008-11-01 0 4 1 4
2008-11-02 1 4 0 7
2008-11-03 0 0 0 9
2008-11-04 1 2 0 7
2008-11-05 1 4 1 5
2008-11-06 1 4 0 9
2008-11-07 0 5 0 5
2008-11-08 0 2 0 8
2008-11-09 1 5 0 5
2008-11-10 0 10 0 4
2008-11-11 2 7 2 4
2008-11-12 0 0 3 7
2008-11-13 1 2 4 7
2008-11-14 0 2 4 6
2008-11-15 1 4 5 7
2008-11-16 1 5 4 4
2008-11-17 0 3 6 7
2008-11-18 0 0 4 5
2008-11-19 3 8 8 10
2008-11-20 0 5 1 8
2008-11-21 0 7 1 10
2008-11-22 1 3 0 6
2008-11-23 0 0 1 6
2008-11-24 0 5 0 6
2008-11-25 0 0 1 10
2008-11-26 0 0 1 6
2008-11-27 0 3 0 4
2008-11-28 0 1 1 5
2008-11-29 1 1 0 8
2008-11-30 0 1 0 8
October 2008 12 82 9 15
September 2008 6 12 10 19
August 2008 2 14 4 9
July 2008 6 21 9 28
June 2008 11 60 20 21
May 2008 19 64 9 7
April 2008 9 40 3 9
March 2008 22 74 29 12